Time;durP1;ratioP1;P1;durP2;ratioP2;P2;SDS_P1;SDS_P2;PMS_P1;PMS_P2;Temp;Humidity;BMP_temperature;BMP_pressure;BME280_temperature;BME280_humidity;BME280_pressure;Samples;Min_cycle;Max_cycle;Signal;HPM_P1;HPM_P2
2023/03/02 00:01:54;;;;;;;45.08;20.65;;;2.20;99.90;;;;;;5156129;27;20122;-81
2023/03/02 00:04:34;;;;;;;48.13;21.27;;;2.20;99.90;;;;;;5137637;27;20107;-81
2023/03/02 00:07:04;;;;;;;41.85;17.92;;;2.80;99.90;;;;;;5137788;27;20089;-82
2023/03/02 00:09:31;;;;;;;49.67;22.48;;;2.20;99.90;;;;;;5137429;27;20047;-81
2023/03/02 00:11:57;;;;;;;46.58;21.23;;;2.20;99.90;;;;;;5120638;27;20089;-81
2023/03/02 00:14:22;;;;;;;44.78;20.98;;;2.20;99.90;;;;;;5155663;27;20074;-81
2023/03/02 00:16:48;;;;;;;49.05;22.35;;;2.20;99.90;;;;;;5120218;27;20034;-82
2023/03/02 00:19:14;;;;;;;42.85;21.35;;;2.20;99.90;;;;;;5155558;27;20495;-81
2023/03/02 00:21:40;;;;;;;49.25;22.92;;;2.20;99.90;;;;;;5155560;27;20045;-82
2023/03/02 00:24:06;;;;;;;50.50;22.52;;;2.30;99.90;;;;;;5155466;27;20050;-81
2023/03/02 00:26:33;;;;;;;50.40;22.08;;;2.20;99.90;;;;;;5155445;27;20054;-81
2023/03/02 00:28:59;;;;;;;47.95;22.45;;;2.20;99.90;;;;;;5155501;27;20038;-82
2023/03/02 00:31:24;;;;;;;60.55;24.13;;;2.20;99.90;;;;;;5155277;27;20549;-81
2023/03/02 00:33:53;;;;;;;52.45;22.77;;;2.20;99.90;;;;;;5155342;27;20042;-81
2023/03/02 00:36:19;;;;;;;56.72;23.15;;;2.20;99.90;;;;;;5155816;27;20051;-81
2023/03/02 00:38:45;;;;;;;50.13;24.08;;;2.20;99.90;;;;;;5136893;27;20054;-81
2023/03/02 00:41:13;;;;;;;53.58;23.88;;;2.20;99.90;;;;;;5155157;27;20051;-81
2023/03/02 00:43:39;;;;;;;54.20;24.20;;;2.20;99.90;;;;;;5120303;27;20035;-81
2023/03/02 00:46:23;;;;;;;56.25;25.35;;;2.20;99.90;;;;;;5120017;27;20069;-81
2023/03/02 00:48:49;;;;;;;54.75;23.17;;;2.20;99.90;;;;;;5154888;27;20134;-81
2023/03/02 00:51:16;;;;;;;50.78;20.83;;;2.20;99.90;;;;;;5155744;27;20122;-81
2023/03/02 00:53:42;;;;;;;52.08;24.05;;;2.20;99.90;;;;;;5137052;27;20045;-82
2023/03/02 00:56:09;;;;;;;55.65;22.63;;;3.20;99.90;;;;;;5155255;27;20043;-82
2023/03/02 00:58:35;;;;;;;51.55;22.33;;;2.10;99.90;;;;;;5136594;27;20054;-81
2023/03/02 01:01:07;;;;;;;47.13;23.37;;;2.20;99.90;;;;;;5119559;27;20038;-82
2023/03/02 01:03:32;;;;;;;54.22;24.33;;;2.10;99.90;;;;;;5156092;27;20608;-81
2023/03/02 01:05:59;;;;;;;53.72;24.52;;;2.10;99.90;;;;;;5159601;27;20133;-81
2023/03/02 01:08:25;;;;;;;54.65;24.30;;;2.00;99.90;;;;;;5158853;27;20099;-81
2023/03/02 01:10:51;;;;;;;50.20;23.45;;;2.00;99.90;;;;;;5140970;27;20058;-82
2023/03/02 01:13:18;;;;;;;49.95;22.77;;;2.00;99.90;;;;;;5159184;27;20465;-82
2023/03/02 01:15:44;;;;;;;50.78;23.15;;;2.00;99.90;;;;;;5158965;27;20089;-82
2023/03/02 01:18:10;;;;;;;45.65;21.65;;;2.00;99.90;;;;;;5140423;27;20457;-82
2023/03/02 01:20:35;;;;;;;52.50;23.63;;;2.00;99.90;;;;;;5158987;27;20038;-82
2023/03/02 01:23:01;;;;;;;52.38;23.92;;;2.00;99.90;;;;;;5123948;27;20469;-82
2023/03/02 01:25:26;;;;;;;54.22;24.20;;;2.00;99.90;;;;;;5140752;27;20078;-82
2023/03/02 01:27:52;;;;;;;48.40;21.92;;;1.90;99.90;;;;;;5158604;27;20030;-82
2023/03/02 01:30:18;;;;;;;53.35;23.65;;;1.90;99.90;;;;;;5140270;27;20042;-82
2023/03/02 01:32:44;;;;;;;50.25;22.92;;;1.90;99.90;;;;;;5159245;27;20386;-82
2023/03/02 01:35:10;;;;;;;48.65;21.80;;;1.90;99.90;;;;;;5158659;27;20047;-82
2023/03/02 01:37:35;;;;;;;46.85;20.98;;;2.30;99.90;;;;;;5158549;27;20103;-82
2023/03/02 01:40:05;;;;;;;57.42;23.15;;;1.90;99.90;;;;;;5140324;27;20035;-82
2023/03/02 01:42:38;;;;;;;48.05;22.23;;;1.90;99.90;;;;;;5158438;27;20445;-81
2023/03/02 01:45:05;;;;;;;50.75;22.65;;;1.90;99.90;;;;;;5158416;27;20038;-82
2023/03/02 01:47:32;;;;;;;;;;;1.90;99.90;;;;;;5158768;27;20099;-82
2023/03/02 01:50:18;;;;;;;46.58;20.80;;;1.80;99.90;;;;;;5122581;27;19970;-81
2023/03/02 01:52:44;;;;;;;44.28;20.92;;;1.80;99.90;;;;;;5158327;27;20043;-82
2023/03/02 01:55:12;;;;;;;45.92;21.80;;;1.90;99.90;;;;;;5139499;27;20377;-82
2023/03/02 01:57:45;;;;;;;46.15;21.55;;;1.80;99.90;;;;;;5158121;27;20043;-81
2023/03/02 02:00:19;;;;;;;44.25;19.17;;;1.90;99.90;;;;;;5158108;27;20093;-82
2023/03/02 02:02:45;;;;;;;40.78;20.02;;;1.70;99.90;;;;;;5158434;27;20554;-82
2023/03/02 02:05:16;;;;;;;46.05;21.48;;;1.70;99.90;;;;;;5139710;27;20042;-81
2023/03/02 02:07:42;;;;;;;43.60;20.65;;;1.70;99.90;;;;;;5122653;27;20054;-81
2023/03/02 02:10:09;;;;;;;47.77;20.90;;;1.70;99.90;;;;;;5139592;27;20042;-82
2023/03/02 02:12:34;;;;;;;;;;;1.70;99.90;;;;;;5140842;27;20089;-81
2023/03/02 02:15:01;;;;;;;49.85;21.58;;;1.70;99.90;;;;;;5156809;27;20389;-81
2023/03/02 02:17:28;;;;;;;46.90;20.67;;;1.70;99.90;;;;;;5139040;27;20442;-81
2023/03/02 02:20:09;;;;;;;42.88;18.92;;;1.70;99.90;;;;;;5138984;27;20125;-81
2023/03/02 02:23:09;;;;;;;43.20;21.00;;;1.60;99.90;;;;;;5139207;27;20046;-81
2023/03/02 02:25:54;;;;;;;50.83;20.55;;;1.60;99.90;;;;;;5139935;27;20050;-81
2023/03/02 02:28:50;;;;;;;42.95;19.75;;;1.50;99.90;;;;;;5122656;27;20038;-81
2023/03/02 02:31:51;;;;;;;45.60;20.40;;;1.50;99.90;;;;;;5139328;27;20393;-82
2023/03/02 02:34:26;;;;;;;52.05;21.85;;;1.50;99.90;;;;;;5139439;27;20046;-82
2023/03/02 02:37:02;;;;;;;51.90;22.63;;;1.50;99.90;;;;;;5157456;27;20049;-82
2023/03/02 02:39:32;;;;;;;49.83;21.00;;;1.50;99.90;;;;;;5157383;27;20085;-82
2023/03/02 02:42:01;;;;;;;46.30;20.77;;;1.50;99.90;;;;;;5139285;27;20102;-82
2023/03/02 02:44:27;;;;;;;48.10;21.45;;;2.20;99.90;;;;;;5139545;27;20389;-82
2023/03/02 02:46:53;;;;;;;47.72;20.90;;;1.60;99.90;;;;;;5157213;27;20039;-82
2023/03/02 02:49:34;;;;;;;47.42;21.30;;;1.60;99.90;;;;;;5135220;27;20079;-82
2023/03/02 02:52:00;;;;;;;48.88;20.65;;;2.00;99.90;;;;;;5135153;27;20051;-82
2023/03/02 02:54:27;;;;;;;43.55;19.30;;;1.60;99.90;;;;;;5136349;27;20101;-82
2023/03/02 02:56:53;;;;;;;;;;;1.60;99.90;;;;;;5118567;27;20046;-81
2023/03/02 02:59:20;;;;;;;45.53;19.98;;;1.60;99.90;;;;;;5135068;27;20017;-81
2023/03/02 03:01:48;;;;;;;53.63;21.45;;;2.00;99.90;;;;;;5118245;27;20051;-83
2023/03/02 03:04:18;;;;;;;45.97;21.20;;;1.70;99.90;;;;;;5135258;27;20457;-82
2023/03/02 03:06:58;;;;;;;43.72;19.60;;;1.60;99.90;;;;;;5135345;27;20054;-82
2023/03/02 03:09:25;;;;;;;42.65;19.48;;;1.60;99.90;;;;;;5118287;27;20047;-81
2023/03/02 03:11:56;;;;;;;45.72;18.48;;;2.50;99.90;;;;;;5135844;27;20046;-81
2023/03/02 03:14:28;;;;;;;42.30;18.52;;;1.50;99.90;;;;;;5134838;27;20095;-82
2023/03/02 03:16:54;;;;;;;41.83;19.70;;;1.50;99.90;;;;;;5134580;27;20046;-82
2023/03/02 03:19:21;;;;;;;40.40;18.57;;;2.00;99.90;;;;;;5135590;27;20742;-82
2023/03/02 03:21:50;;;;;;;46.03;19.13;;;1.40;99.90;;;;;;5117898;27;20111;-82
2023/03/02 03:24:17;;;;;;;43.22;20.55;;;1.60;99.90;;;;;;5136021;27;20050;-82
2023/03/02 03:26:43;;;;;;;50.03;20.17;;;1.50;99.90;;;;;;5134451;27;20047;-82
2023/03/02 03:29:09;;;;;;;46.50;20.52;;;1.90;99.90;;;;;;5135647;27;20481;-82
2023/03/02 03:31:34;;;;;;;49.97;21.10;;;1.50;99.90;;;;;;5134597;27;20050;-82
2023/03/02 03:34:00;;;;;;;43.13;17.35;;;1.50;99.90;;;;;;5135640;27;20046;-82
2023/03/02 03:36:30;;;;;;;43.60;19.15;;;1.60;99.90;;;;;;5135441;27;20044;-82
2023/03/02 03:38:57;;;;;;;47.70;19.98;;;1.40;99.90;;;;;;5135757;27;20386;-82
2023/03/02 03:41:23;;;;;;;46.67;19.73;;;1.40;99.90;;;;;;5135803;27;20385;-82
2023/03/02 03:43:49;;;;;;;45.55;19.30;;;1.40;99.90;;;;;;5135389;27;20122;-81
2023/03/02 03:46:15;;;;;;;50.07;19.20;;;1.40;99.90;;;;;;5117542;27;20039;-81
2023/03/02 03:48:41;;;;;;;44.87;18.73;;;1.30;99.90;;;;;;5135611;27;20438;-82
2023/03/02 03:51:07;;;;;;;49.25;20.25;;;1.40;99.90;;;;;;5156165;27;20082;-82
2023/03/02 03:53:33;;;;;;;47.60;19.95;;;1.30;99.90;;;;;;5138184;27;20050;-82
2023/03/02 03:55:59;;;;;;;46.70;18.30;;;1.40;99.90;;;;;;5156062;27;20469;-82
2023/03/02 03:58:26;;;;;;;59.15;20.35;;;1.40;99.90;;;;;;5119931;27;20043;-82
2023/03/02 04:00:52;;;;;;;47.80;16.85;;;1.30;99.90;;;;;;5137334;27;20064;-81
2023/03/02 04:03:19;;;;;;;49.85;19.75;;;1.30;99.90;;;;;;5155807;27;20041;-82
2023/03/02 04:05:45;;;;;;;59.72;19.83;;;1.30;99.90;;;;;;5137209;27;20082;-81
2023/03/02 04:08:11;;;;;;;54.63;20.15;;;1.70;99.90;;;;;;5155745;27;20043;-81
2023/03/02 04:10:37;;;;;;;48.65;19.65;;;1.20;99.90;;;;;;5137487;27;20080;-82
2023/03/02 04:13:03;;;;;;;46.30;18.05;;;1.20;99.90;;;;;;5137489;27;20070;-82
2023/03/02 04:15:28;;;;;;;48.40;19.63;;;1.20;99.90;;;;;;5137441;27;20039;-82
2023/03/02 04:17:54;;;;;;;53.25;20.23;;;1.20;99.90;;;;;;5137182;27;20034;-82
2023/03/02 04:20:21;;;;;;;55.75;21.90;;;1.10;99.90;;;;;;5120299;27;20079;-82
2023/03/02 04:22:48;;;;;;;;;;;1.10;99.90;;;;;;5137930;27;20079;-81
2023/03/02 04:25:18;;;;;;;65.38;18.65;;;1.20;99.90;;;;;;5155585;27;19926;-82
2023/03/02 04:27:45;;;;;;;56.83;19.90;;;1.10;99.90;;;;;;5155757;27;20121;-82
2023/03/02 04:30:12;;;;;;;57.88;21.02;;;1.70;99.90;;;;;;5155275;27;20057;-82
2023/03/02 04:32:37;;;;;;;60.40;21.95;;;1.00;99.90;;;;;;5155384;27;20121;-82
2023/03/02 04:35:03;;;;;;;65.28;21.00;;;1.00;99.90;;;;;;5137013;27;20104;-81
2023/03/02 04:37:29;;;;;;;54.70;21.00;;;1.00;99.90;;;;;;5155684;27;20120;-82
2023/03/02 04:39:55;;;;;;;62.17;21.17;;;1.00;99.90;;;;;;5140240;27;20276;-81
2023/03/02 04:42:21;;;;;;;61.17;20.40;;;1.00;99.90;;;;;;5159699;27;20392;-82
2023/03/02 04:44:47;;;;;;;58.15;21.17;;;1.20;99.90;;;;;;5141156;27;20043;-81
2023/03/02 04:47:12;;;;;;;68.78;22.35;;;1.00;99.90;;;;;;5141141;27;20095;-82
2023/03/02 04:49:38;;;;;;;52.45;20.60;;;1.00;99.90;;;;;;5123820;27;20046;-81
2023/03/02 04:52:04;;;;;;;56.97;21.20;;;1.00;99.90;;;;;;5141283;27;20137;-82
2023/03/02 04:54:30;;;;;;;80.57;21.85;;;1.00;99.90;;;;;;5141368;27;20125;-81
2023/03/02 04:56:56;;;;;;;59.22;22.02;;;1.00;99.90;;;;;;5141033;27;20126;-81
2023/03/02 04:59:24;;;;;;;72.10;22.40;;;1.10;99.90;;;;;;5141125;27;20087;-81
2023/03/02 05:01:56;;;;;;;70.30;22.85;;;1.20;99.90;;;;;;5140923;27;20126;-81
2023/03/02 05:04:21;;;;;;;82.70;21.40;;;1.00;99.90;;;;;;5159083;27;20549;-81
2023/03/02 05:06:47;;;;;;;81.00;24.45;;;1.00;99.90;;;;;;5159155;27;20072;-82
2023/03/02 05:09:13;;;;;;;108.25;23.85;;;1.10;99.90;;;;;;5140716;27;20047;-81
2023/03/02 05:11:39;;;;;;;66.28;23.48;;;1.30;99.90;;;;;;5140693;27;20054;-81
2023/03/02 05:14:07;;;;;;;67.40;23.55;;;1.30;99.90;;;;;;5159115;27;20064;-81
2023/03/02 05:16:35;;;;;;;59.97;22.25;;;1.00;99.90;;;;;;5140346;27;20043;-81
2023/03/02 05:19:03;;;;;;;69.10;21.63;;;1.00;99.90;;;;;;5140613;27;20401;-82
2023/03/02 05:21:31;;;;;;;61.97;21.48;;;1.00;99.90;;;;;;5140788;27;20041;-81
2023/03/02 05:23:57;;;;;;;53.22;21.25;;;0.90;99.90;;;;;;5158695;27;20037;-82
2023/03/02 05:26:22;;;;;;;57.75;22.00;;;1.00;99.90;;;;;;5140280;27;20125;-81
2023/03/02 05:28:48;;;;;;;74.53;23.02;;;0.90;99.90;;;;;;5123076;27;20031;-82
2023/03/02 05:31:21;;;;;;;59.95;20.50;;;1.00;99.90;;;;;;5140202;27;20115;-81
2023/03/02 05:33:48;;;;;;;72.57;22.33;;;0.90;99.90;;;;;;5158619;27;20039;-82
2023/03/02 05:36:13;;;;;;;69.10;22.55;;;0.90;99.90;;;;;;5140333;27;20114;-82
2023/03/02 05:38:39;;;;;;;92.10;22.38;;;1.10;99.90;;;;;;5123053;27;20129;-83
2023/03/02 05:41:05;;;;;;;69.90;22.52;;;0.90;99.90;;;;;;5158536;27;20463;-82
2023/03/02 05:43:31;;;;;;;66.30;23.08;;;0.90;99.90;;;;;;5139938;27;20046;-82
2023/03/02 05:45:59;;;;;;;65.67;24.07;;;0.90;99.90;;;;;;5123128;27;20125;-82
2023/03/02 05:48:29;;;;;;;105.25;23.80;;;0.90;99.90;;;;;;5122984;27;20039;-82
2023/03/02 05:50:55;;;;;;;76.53;25.48;;;1.00;99.90;;;;;;5158340;27;20401;-82
2023/03/02 05:53:21;;;;;;;104.18;25.45;;;0.90;99.90;;;;;;5158323;27;20114;-82
2023/03/02 05:55:47;;;;;;;64.88;22.65;;;0.80;99.90;;;;;;5158299;27;20551;-82
2023/03/02 05:58:15;;;;;;;61.40;22.65;;;1.30;99.90;;;;;;5139557;27;20084;-82
2023/03/02 06:00:41;;;;;;;63.08;22.65;;;0.80;99.90;;;;;;5139736;27;20482;-82
2023/03/02 06:03:06;;;;;;;68.10;21.65;;;0.80;99.90;;;;;;5158088;27;20126;-82
2023/03/02 06:05:32;;;;;;;68.30;22.52;;;0.90;99.90;;;;;;5157879;27;20504;-82
2023/03/02 06:07:58;;;;;;;83.18;22.52;;;1.40;99.90;;;;;;5122754;27;20049;-82
2023/03/02 06:10:24;;;;;;;72.85;23.10;;;0.80;99.90;;;;;;5139816;27;20054;-82
2023/03/02 06:12:50;;;;;;;63.33;22.73;;;0.80;99.90;;;;;;5157964;27;20064;-82
2023/03/02 06:15:16;;;;;;;68.63;23.87;;;0.80;99.90;;;;;;5157643;27;20485;-82
2023/03/02 06:17:42;;;;;;;65.63;21.83;;;0.80;99.90;;;;;;5139368;27;20038;-83
2023/03/02 06:20:10;;;;;;;62.25;23.73;;;0.80;99.90;;;;;;5122240;27;20049;-82
2023/03/02 06:22:42;;;;;;;71.63;22.15;;;0.80;99.90;;;;;;5157842;27;20103;-81
2023/03/02 06:25:09;;;;;;;77.55;21.88;;;1.30;99.90;;;;;;5157730;27;20046;-83
2023/03/02 06:27:36;;;;;;;67.10;22.88;;;0.80;99.90;;;;;;5138890;27;20454;-81
2023/03/02 06:30:03;;;;;;;72.85;21.35;;;0.80;99.90;;;;;;5157616;27;20050;-84
2023/03/02 06:32:32;;;;;;;79.05;23.92;;;0.80;99.90;;;;;;5122281;27;20385;-83
2023/03/02 06:34:59;;;;;;;77.57;23.58;;;0.80;99.90;;;;;;5157341;27;20043;-82
2023/03/02 06:37:27;;;;;;;75.82;23.00;;;0.80;99.90;;;;;;5139153;27;20041;-85
2023/03/02 06:39:53;;;;;;;64.15;21.55;;;0.80;99.90;;;;;;5157517;27;20042;-83
2023/03/02 06:42:19;;;;;;;77.50;23.48;;;0.80;99.90;;;;;;5157694;27;20508;-81
2023/03/02 06:44:45;;;;;;;67.68;21.58;;;1.90;99.90;;;;;;5157367;27;20043;-81
2023/03/02 06:47:11;;;;;;;62.72;22.02;;;1.00;99.90;;;;;;5138888;27;20050;-81
2023/03/02 06:49:36;;;;;;;55.75;20.40;;;0.80;99.90;;;;;;5157284;27;20043;-82
2023/03/02 06:52:02;;;;;;;56.08;19.58;;;1.80;99.90;;;;;;5157192;27;20055;-81
2023/03/02 06:54:28;;;;;;;58.10;20.85;;;0.80;99.90;;;;;;5138800;27;20046;-81
2023/03/02 06:56:55;;;;;;;63.53;20.30;;;0.80;99.90;;;;;;5157021;27;20549;-81
2023/03/02 06:59:22;;;;;;;60.25;20.45;;;0.80;99.90;;;;;;5138462;27;20130;-82
2023/03/02 07:01:49;;;;;;;53.13;19.42;;;0.90;99.90;;;;;;5137784;27;20043;-80
2023/03/02 07:04:15;;;;;;;52.42;18.83;;;1.00;99.90;;;;;;5156892;27;20090;-82
2023/03/02 07:06:41;;;;;;;45.60;18.85;;;0.80;99.90;;;;;;5138692;27;20085;-80
2023/03/02 07:09:06;;;;;;;54.70;19.50;;;0.80;99.90;;;;;;5156747;27;20035;-79
2023/03/02 07:11:32;;;;;;;51.70;18.60;;;0.80;99.90;;;;;;5156827;27;20085;-80
2023/03/02 07:14:01;;;;;;;59.58;21.92;;;0.80;99.90;;;;;;5156877;27;20477;-80
2023/03/02 07:16:27;;;;;;;51.63;21.48;;;0.90;99.90;;;;;;5138823;27;20053;-80
2023/03/02 07:18:53;;;;;;;47.60;19.58;;;0.90;99.90;;;;;;5156916;27;20481;-82
2023/03/02 07:21:18;;;;;;;60.53;21.55;;;0.90;99.90;;;;;;5138577;27;20098;-86
2023/03/02 07:23:44;;;;;;;50.53;20.33;;;0.90;99.90;;;;;;5138417;27;20074;-81
2023/03/02 07:26:10;;;;;;;51.47;21.52;;;0.90;99.90;;;;;;5138307;27;20129;-83
2023/03/02 07:28:40;;;;;;;64.68;21.77;;;1.50;99.90;;;;;;5156435;27;20095;-85
2023/03/02 07:31:07;;;;;;;54.47;20.95;;;1.00;99.90;;;;;;5138684;27;20114;-85
2023/03/02 07:33:33;;;;;;;69.05;19.77;;;1.00;99.90;;;;;;5121087;27;20386;-87
2023/03/02 07:35:59;;;;;;;63.17;23.27;;;1.50;99.90;;;;;;5137851;27;20064;-81
2023/03/02 07:38:25;;;;;;;59.75;21.85;;;1.50;99.90;;;;;;5155076;27;20040;-81
2023/03/02 07:40:51;;;;;;;54.63;21.20;;;1.10;99.90;;;;;;5116379;27;20047;-80
2023/03/02 07:43:17;;;;;;;61.42;21.80;;;1.40;99.90;;;;;;5135537;27;20386;-81
2023/03/02 07:45:43;;;;;;;53.83;19.75;;;1.10;99.90;;;;;;5117007;27;20043;-81
2023/03/02 07:48:08;;;;;;;43.97;21.25;;;1.10;99.90;;;;;;5135369;27;20126;-81
2023/03/02 07:50:34;;;;;;;53.20;21.10;;;1.20;99.90;;;;;;5116448;27;20094;-78
2023/03/02 07:53:00;;;;;;;48.17;20.58;;;1.40;99.90;;;;;;5135080;27;20061;-83
2023/03/02 07:55:25;;;;;;;50.75;20.80;;;1.20;99.90;;;;;;5135309;27;20054;-83
2023/03/02 07:57:51;;;;;;;48.67;21.23;;;1.30;99.90;;;;;;5135137;27;20047;-80
2023/03/02 08:00:17;;;;;;;47.92;19.65;;;1.30;99.90;;;;;;5135212;27;20044;-81
2023/03/02 08:02:43;;;;;;;47.35;16.58;;;1.40;99.90;;;;;;5116971;27;20039;-85
2023/03/02 08:05:10;;;;;;;43.35;20.58;;;1.40;99.90;;;;;;5136203;27;20045;-84
2023/03/02 08:07:36;;;;;;;53.15;20.38;;;1.40;99.90;;;;;;5130251;27;20043;-85
2023/03/02 08:10:02;;;;;;;46.28;18.52;;;1.30;99.90;;;;;;5114644;27;20095;-85
2023/03/02 08:12:28;;;;;;;45.28;17.10;;;1.40;99.90;;;;;;5114466;27;20417;-85
2023/03/02 08:14:54;;;;;;;41.80;18.83;;;1.40;99.90;;;;;;5115044;27;20066;-85
2023/03/02 08:17:20;;;;;;;45.05;17.88;;;1.40;99.90;;;;;;5133121;27;20050;-85
2023/03/02 08:19:46;;;;;;;56.20;17.90;;;1.40;99.90;;;;;;5115446;27;20047;-85
2023/03/02 08:22:12;;;;;;;48.42;16.52;;;;;;;;;;5115639;28;20127;-85
2023/03/02 08:24:40;;;;;;;44.05;13.93;;;1.40;99.90;;;;;;5116525;27;20066;-85
2023/03/02 08:27:06;;;;;;;34.28;16.33;;;2.80;99.90;;;;;;5100104;27;20043;-85
2023/03/02 08:29:32;;;;;;;36.80;15.90;;;1.50;99.90;;;;;;5135183;27;20050;-84
2023/03/02 08:31:58;;;;;;;38.97;17.27;;;1.70;99.90;;;;;;5116373;27;20110;-85
2023/03/02 08:34:27;;;;;;;39.05;16.60;;;1.50;99.90;;;;;;5134766;28;20058;-85
2023/03/02 08:36:52;;;;;;;38.00;17.67;;;1.40;99.90;;;;;;5116166;28;20031;-85
2023/03/02 08:39:20;;;;;;;36.65;16.50;;;1.80;99.90;;;;;;5116670;28;20047;-85
2023/03/02 08:41:52;;;;;;;47.53;17.13;;;1.50;99.90;;;;;;5100156;28;20047;-85
2023/03/02 08:44:20;;;;;;;36.17;17.50;;;1.60;99.90;;;;;;5134713;28;20053;-84
2023/03/02 08:46:50;;;;;;;37.80;16.65;;;1.60;99.90;;;;;;5134242;28;20047;-85
2023/03/02 08:49:17;;;;;;;40.20;19.13;;;1.60;99.90;;;;;;5133374;28;20526;-85
2023/03/02 08:51:43;;;;;;;;;;;1.70;99.90;;;;;;5116908;28;20090;-85
2023/03/02 08:54:09;;;;;;;40.95;18.38;;;1.70;99.90;;;;;;5099461;28;19955;-84
2023/03/02 08:56:37;;;;;;;38.60;17.52;;;1.70;99.90;;;;;;5116121;28;20440;-85
2023/03/02 08:59:06;;;;;;;43.85;19.95;;;1.70;99.90;;;;;;5134442;28;20092;-85
2023/03/02 09:01:34;;;;;;;40.25;19.27;;;1.80;99.90;;;;;;5116402;28;20101;-85
2023/03/02 09:04:00;;;;;;;39.90;18.98;;;1.80;99.90;;;;;;5134473;28;20389;-84
2023/03/02 09:06:27;;;;;;;41.70;18.73;;;1.90;99.90;;;;;;5135130;28;20439;-85
2023/03/02 09:08:53;;;;;;;37.03;17.83;;;2.00;99.90;;;;;;5099359;28;20748;-85
2023/03/02 09:11:18;;;;;;;42.53;17.05;;;2.00;99.90;;;;;;5116269;28;20092;-85
2023/03/02 09:13:44;;;;;;;33.50;17.05;;;2.50;99.90;;;;;;5134430;28;20066;-85
2023/03/02 09:16:11;;;;;;;43.80;16.10;;;2.10;99.90;;;;;;5134567;28;20043;-85
2023/03/02 09:18:37;;;;;;;34.42;16.38;;;2.30;99.90;;;;;;5115909;28;20046;-84
2023/03/02 09:21:03;;;;;;;31.20;15.98;;;2.10;99.90;;;;;;5116206;28;20039;-85
2023/03/02 09:23:30;;;;;;;35.53;16.45;;;2.10;99.90;;;;;;5116177;28;20123;-85
2023/03/02 09:25:55;;;;;;;34.75;15.93;;;2.60;99.90;;;;;;5119031;27;20047;-85
2023/03/02 09:28:21;;;;;;;30.88;16.42;;;2.20;99.90;;;;;;5102993;27;20043;-85
2023/03/02 09:30:52;;;;;;;33.67;16.00;;;2.20;99.90;;;;;;5119770;27;20400;-85
2023/03/02 09:33:19;;;;;;;31.30;16.73;;;2.30;99.90;;;;;;5119838;27;20049;-84
2023/03/02 09:35:45;;;;;;;31.65;16.00;;;2.30;99.90;;;;;;5119918;27;20038;-84
2023/03/02 09:38:14;;;;;;;31.08;15.48;;;2.30;99.90;;;;;;5119521;27;20511;-85
2023/03/02 09:40:56;;;;;;;34.08;16.13;;;2.40;99.90;;;;;;5119920;27;20043;-85
2023/03/02 09:43:29;;;;;;;29.50;16.08;;;2.50;99.90;;;;;;5119467;27;20485;-85
2023/03/02 09:46:06;;;;;;;31.88;15.82;;;2.50;99.90;;;;;;5119722;27;20043;-85
2023/03/02 09:49:00;;;;;;;30.23;16.00;;;2.50;99.90;;;;;;5119612;27;20517;-85
2023/03/02 09:51:49;;;;;;;29.00;15.63;;;2.50;99.90;;;;;;5119666;27;20086;-85
2023/03/02 09:54:19;;;;;;;30.42;16.25;;;2.50;99.90;;;;;;5137627;27;20095;-84
2023/03/02 09:56:54;;;;;;;28.25;15.45;;;2.40;99.90;;;;;;5119631;27;20546;-85
2023/03/02 09:59:29;;;;;;;30.67;15.75;;;2.40;99.90;;;;;;5137530;27;20054;-84
2023/03/02 10:02:02;;;;;;;30.38;15.20;;;2.50;99.90;;;;;;5119337;27;20039;-85
2023/03/02 10:04:35;;;;;;;34.42;17.40;;;2.70;99.90;;;;;;5119472;27;20043;-85
2023/03/02 10:07:12;;;;;;;28.77;14.88;;;2.60;99.90;;;;;;5119572;27;20051;-84
2023/03/02 10:09:38;;;;;;;33.70;16.08;;;2.70;99.90;;;;;;5119408;27;20072;-85
2023/03/02 10:12:29;;;;;;;25.80;14.75;;;2.70;99.90;;;;;;5119553;27;20047;-85
2023/03/02 10:15:09;;;;;;;28.38;14.93;;;2.80;99.90;;;;;;5118777;27;20070;-85
2023/03/02 10:18:10;;;;;;;25.75;14.40;;;2.90;99.90;;;;;;5119604;27;20039;-85
2023/03/02 10:20:48;;;;;;;25.25;13.63;;;3.00;99.90;;;;;;5119138;27;20473;-85
2023/03/02 10:23:16;;;;;;;28.40;15.95;;;3.20;99.90;;;;;;5118939;27;20047;-84
2023/03/02 10:26:13;;;;;;;32.03;15.90;;;3.40;99.90;;;;;;5118857;27;20103;-85
2023/03/02 10:29:15;;;;;;;30.77;16.55;;;3.50;99.90;;;;;;5090619;27;20051;-84
2023/03/02 10:31:42;;;;;;;29.33;15.20;;;3.60;99.90;;;;;;5101786;27;20130;-85
2023/03/02 10:34:10;;;;;;;26.92;14.35;;;3.90;99.90;;;;;;5102090;27;20053;-84
2023/03/02 10:36:39;;;;;;;29.58;14.88;;;3.70;99.90;;;;;;5117679;27;20436;-85
2023/03/02 10:39:15;;;;;;;29.70;15.02;;;3.80;99.90;;;;;;5136741;27;20050;-84
2023/03/02 10:41:50;;;;;;;29.13;15.20;;;3.80;99.90;;;;;;5136634;27;20070;-85
2023/03/02 10:44:23;;;;;;;29.75;15.27;;;3.80;99.90;;;;;;5136597;27;20125;-85
2023/03/02 10:46:52;;;;;;;26.65;15.02;;;3.80;99.90;;;;;;5101803;27;20424;-85
2023/03/02 10:49:40;;;;;;;27.90;14.38;;;3.80;99.90;;;;;;5136810;27;20055;-84
2023/03/02 10:52:13;;;;;;;27.65;15.63;;;3.70;99.90;;;;;;5136543;27;20043;-85
2023/03/02 10:54:39;;;;;;;24.88;12.65;;;3.60;99.90;;;;;;5118373;27;20043;-84
2023/03/02 10:57:29;;;;;;;29.42;15.15;;;3.70;99.90;;;;;;5136155;27;20049;-84
2023/03/02 11:00:16;;;;;;;26.23;14.63;;;3.60;99.90;;;;;;5135293;27;20074;-85
2023/03/02 11:03:01;;;;;;;28.17;14.95;;;3.60;99.90;;;;;;5136170;27;20069;-84
2023/03/02 11:05:36;;;;;;;28.83;15.18;;;3.60;99.90;;;;;;5101101;27;20141;-84
2023/03/02 11:08:04;;;;;;;29.20;15.25;;;4.70;99.90;;;;;;5101037;27;20043;-85
2023/03/02 11:10:36;;;;;;;27.50;15.65;;;3.60;99.90;;;;;;5136150;27;20099;-85
2023/03/02 11:13:15;;;;;;;28.23;16.45;;;3.80;99.90;;;;;;5135982;27;20096;-84
2023/03/02 11:15:50;;;;;;;24.92;13.75;;;3.80;99.90;;;;;;5117475;27;20039;-84
2023/03/02 11:18:33;;;;;;;23.70;13.93;;;3.80;99.90;;;;;;5135855;27;20039;-85
2023/03/02 11:21:03;;;;;;;24.77;13.65;;;3.90;99.90;;;;;;5117996;27;20138;-84
2023/03/02 11:23:36;;;;;;;25.33;14.68;;;4.00;99.90;;;;;;5117526;27;20047;-85
2023/03/02 11:26:19;;;;;;;25.13;13.85;;;4.10;99.90;;;;;;5117711;27;20087;-84
2023/03/02 11:28:57;;;;;;;24.00;13.65;;;4.20;99.90;;;;;;5100588;27;20042;-85
2023/03/02 11:31:48;;;;;;;30.70;14.57;;;4.20;99.90;;;;;;5135809;27;20047;-84
2023/03/02 11:34:28;;;;;;;26.25;14.45;;;4.20;99.90;;;;;;5135632;27;20151;-84
2023/03/02 11:37:10;;;;;;;25.80;14.57;;;4.30;99.90;;;;;;5100407;27;20122;-85
2023/03/02 11:40:14;;;;;;;24.95;14.13;;;4.40;99.90;;;;;;5135822;27;20091;-84
2023/03/02 11:42:43;;;;;;;30.60;14.10;;;4.40;99.90;;;;;;5100438;27;20062;-84
2023/03/02 11:45:21;;;;;;;27.73;14.88;;;4.30;99.90;;;;;;5100471;27;20043;-85
2023/03/02 11:47:52;;;;;;;25.40;14.02;;;4.30;99.90;;;;;;5100259;27;20042;-85
2023/03/02 11:50:19;;;;;;;26.52;14.10;;;4.50;99.90;;;;;;5116986;27;20055;-84
2023/03/02 11:52:53;;;;;;;26.47;13.87;;;4.70;99.90;;;;;;5117191;27;20507;-84
2023/03/02 11:55:24;;;;;;;28.13;13.85;;;4.70;99.90;;;;;;5100353;27;20062;-84
2023/03/02 11:57:58;;;;;;;31.30;15.90;;;4.70;99.90;;;;;;5116659;27;20039;-85
2023/03/02 12:00:33;;;;;;;28.63;15.70;;;4.80;99.90;;;;;;5117363;27;20055;-84
2023/03/02 12:03:38;;;;;;;32.63;16.45;;;4.70;99.90;;;;;;5117003;27;20090;-84
2023/03/02 12:06:12;;;;;;;31.08;14.50;;;4.70;99.90;;;;;;5116956;27;20389;-85
2023/03/02 12:08:41;;;;;;;27.95;14.65;;;4.70;99.90;;;;;;5135126;27;20042;-84
2023/03/02 12:11:15;;;;;;;27.75;15.50;;;4.60;99.90;;;;;;5134985;27;20047;-84
2023/03/02 12:13:42;;;;;;;28.10;15.43;;;4.70;99.90;;;;;;5135029;27;20043;-84
2023/03/02 12:16:37;;;;;;;26.55;14.88;;;4.60;99.90;;;;;;5134873;27;20509;-84
2023/03/02 12:19:16;;;;;;;27.77;15.38;;;4.60;99.90;;;;;;5117135;27;20047;-84
2023/03/02 12:22:01;;;;;;;24.52;13.38;;;4.70;99.90;;;;;;5117181;28;20058;-84
2023/03/02 12:24:28;;;;;;;26.67;15.32;;;4.70;99.90;;;;;;5134802;27;20092;-84
2023/03/02 12:27:05;;;;;;;;;;;4.70;99.90;;;;;;5135591;27;20082;-84
2023/03/02 12:30:09;;;;;;;25.88;14.23;;;4.70;99.90;;;;;;5116673;27;20422;-84
2023/03/02 12:32:36;;;;;;;26.08;14.45;;;4.70;99.90;;;;;;5092950;28;20494;-84
2023/03/02 12:35:07;;;;;;;24.48;13.20;;;4.80;99.90;;;;;;5134827;27;20200;-85
2023/03/02 12:37:56;;;;;;;26.08;14.00;;;4.90;99.90;;;;;;5116814;28;20043;-85
2023/03/02 12:40:59;;;;;;;24.73;14.07;;;4.90;99.90;;;;;;5099913;28;20093;-84
2023/03/02 12:43:46;;;;;;;26.35;13.88;;;4.90;99.90;;;;;;5116533;28;20043;-84
2023/03/02 12:46:25;;;;;;;24.90;14.13;;;4.90;99.90;;;;;;5116745;28;20108;-84
2023/03/02 12:49:10;;;;;;;24.88;14.00;;;4.90;99.90;;;;;;5116506;28;20043;-84
2023/03/02 12:51:48;;;;;;;24.85;13.80;;;4.70;99.90;;;;;;5115869;28;20469;-84
2023/03/02 12:54:17;;;;;;;25.08;13.77;;;4.70;99.90;;;;;;5116978;28;20555;-84